Dannelly, Alabama
Current Conditions -  °F | °C
As of 1:58 AM on Friday 24 Oct 2014 (Local Time) from KMXF Reporting Station
Overcast Overcast  
Wind Chill: 50°   Ceiling: 20000
Heat Index: 50°   Visibility: 10mi
Dew Point: 50°   Wind: 2mph
Humidity: 99%   Direction: 310°NW
Pressure: 30.06"   Gusts: NA
Location:  32.3488°N, 86.4016°W
Report Text: KMXF 240658Z AUTO 31002KT 10SM OVC200 10/10 A3006 RMK AO2 SLP182 T00990098
Loading
Personal Weather Stations






























Interactive Weather Map
Tropical Storm Tracking
New forecast layout! Learn more

10-Day Weather Forecast

Advertisements
Track Severe Weather on mobile